sensor_id;sensor_type;location;lat;lon;timestamp;temperature;humidity
26224;DHT22;14820;48.682;8.890;2022-09-09T00:02:22;14.30;99.90
26224;DHT22;14820;48.682;8.890;2022-09-09T00:05:00;14.40;99.90
26224;DHT22;14820;48.682;8.890;2022-09-09T00:07:39;14.40;99.90
26224;DHT22;14820;48.682;8.890;2022-09-09T00:10:24;14.40;99.90
26224;DHT22;14820;48.682;8.890;2022-09-09T00:21:03;14.40;99.90
26224;DHT22;14820;48.682;8.890;2022-09-09T00:23:40;14.30;99.90
26224;DHT22;14820;48.682;8.890;2022-09-09T00:26:14;14.20;99.90
26224;DHT22;14820;48.682;8.890;2022-09-09T00:28:50;14.20;99.90
26224;DHT22;14820;48.682;8.890;2022-09-09T00:31:26;14.30;99.90
26224;DHT22;14820;48.682;8.890;2022-09-09T00:33:53;14.40;99.90
26224;DHT22;14820;48.682;8.890;2022-09-09T00:36:24;14.40;99.90
26224;DHT22;14820;48.682;8.890;2022-09-09T00:38:58;14.40;99.90
26224;DHT22;14820;48.682;8.890;2022-09-09T00:44:00;14.30;99.90
26224;DHT22;14820;48.682;8.890;2022-09-09T01:00:22;14.20;99.90
26224;DHT22;14820;48.682;8.890;2022-09-09T01:11:01;14.10;99.90
26224;DHT22;14820;48.682;8.890;2022-09-09T01:13:33;14.00;99.90
26224;DHT22;14820;48.682;8.890;2022-09-09T01:16:01;14.10;99.90
26224;DHT22;14820;48.682;8.890;2022-09-09T01:18:32;14.10;99.90
26224;DHT22;14820;48.682;8.890;2022-09-09T01:21:18;14.10;99.90
26224;DHT22;14820;48.682;8.890;2022-09-09T01:27:09;14.00;99.90
26224;DHT22;14820;48.682;8.890;2022-09-09T01:29:36;14.10;99.90
26224;DHT22;14820;48.682;8.890;2022-09-09T01:38:08;14.10;99.90
26224;DHT22;14820;48.682;8.890;2022-09-09T01:40:34;14.10;99.90
26224;DHT22;14820;48.682;8.890;2022-09-09T01:42:59;14.00;99.90
26224;DHT22;14820;48.682;8.890;2022-09-09T01:45:25;14.10;99.90
26224;DHT22;14820;48.682;8.890;2022-09-09T01:47:52;14.20;99.90
26224;DHT22;14820;48.682;8.890;2022-09-09T01:50:19;14.20;99.90
26224;DHT22;14820;48.682;8.890;2022-09-09T01:52:49;14.20;99.90
26224;DHT22;14820;48.682;8.890;2022-09-09T01:55:16;14.30;99.90
26224;DHT22;14820;48.682;8.890;2022-09-09T01:58:08;14.30;99.90
26224;DHT22;14820;48.682;8.890;2022-09-09T02:00:36;14.30;99.90
26224;DHT22;14820;48.682;8.890;2022-09-09T02:03:20;14.40;99.90
26224;DHT22;14820;48.682;8.890;2022-09-09T02:08:42;14.40;99.90
26224;DHT22;14820;48.682;8.890;2022-09-09T02:11:14;14.40;99.90
26224;DHT22;14820;48.682;8.890;2022-09-09T02:13:42;14.40;99.90
26224;DHT22;14820;48.682;8.890;2022-09-09T02:16:13;14.40;99.90
26224;DHT22;14820;48.682;8.890;2022-09-09T02:21:13;14.30;99.90
26224;DHT22;14820;48.682;8.890;2022-09-09T02:23:41;14.30;99.90
26224;DHT22;14820;48.682;8.890;2022-09-09T02:26:09;14.30;99.90
26224;DHT22;14820;48.682;8.890;2022-09-09T02:28:36;14.30;99.90
26224;DHT22;14820;48.682;8.890;2022-09-09T02:31:04;14.40;99.90
26224;DHT22;14820;48.682;8.890;2022-09-09T02:33:35;14.30;99.90
26224;DHT22;14820;48.682;8.890;2022-09-09T02:36:03;14.30;99.90
26224;DHT22;14820;48.682;8.890;2022-09-09T02:38:35;14.20;99.90
26224;DHT22;14820;48.682;8.890;2022-09-09T02:41:02;14.10;99.90
26224;DHT22;14820;48.682;8.890;2022-09-09T02:43:33;14.00;99.90
26224;DHT22;14820;48.682;8.890;2022-09-09T02:46:32;14.00;99.90
26224;DHT22;14820;48.682;8.890;2022-09-09T02:49:08;14.00;99.90
26224;DHT22;14820;48.682;8.890;2022-09-09T02:51:53;13.90;99.90
26224;DHT22;14820;48.682;8.890;2022-09-09T02:54:37;13.90;99.90
26224;DHT22;14820;48.682;8.890;2022-09-09T02:57:12;13.90;99.90
26224;DHT22;14820;48.682;8.890;2022-09-09T02:59:39;13.90;99.90
26224;DHT22;14820;48.682;8.890;2022-09-09T03:02:05;13.80;99.90
26224;DHT22;14820;48.682;8.890;2022-09-09T03:04:31;13.70;99.90
26224;DHT22;14820;48.682;8.890;2022-09-09T03:06:57;13.60;99.90
26224;DHT22;14820;48.682;8.890;2022-09-09T03:09:24;13.60;99.90
26224;DHT22;14820;48.682;8.890;2022-09-09T03:11:51;13.50;99.90
26224;DHT22;14820;48.682;8.890;2022-09-09T03:14:17;13.60;99.90
26224;DHT22;14820;48.682;8.890;2022-09-09T03:16:47;13.60;99.90
26224;DHT22;14820;48.682;8.890;2022-09-09T03:19:12;13.60;99.90
26224;DHT22;14820;48.682;8.890;2022-09-09T03:21:38;13.50;99.90
26224;DHT22;14820;48.682;8.890;2022-09-09T03:24:04;13.40;99.90
26224;DHT22;14820;48.682;8.890;2022-09-09T03:26:30;13.50;99.90
26224;DHT22;14820;48.682;8.890;2022-09-09T03:28:57;13.40;99.90
26224;DHT22;14820;48.682;8.890;2022-09-09T03:31:23;13.40;99.90
26224;DHT22;14820;48.682;8.890;2022-09-09T03:33:48;13.40;99.90
26224;DHT22;14820;48.682;8.890;2022-09-09T03:36:14;13.40;99.90
26224;DHT22;14820;48.682;8.890;2022-09-09T03:38:41;13.40;99.90
26224;DHT22;14820;48.682;8.890;2022-09-09T03:41:07;13.50;99.90
26224;DHT22;14820;48.682;8.890;2022-09-09T03:43:33;13.50;99.90
26224;DHT22;14820;48.682;8.890;2022-09-09T03:45:59;13.40;99.90
26224;DHT22;14820;48.682;8.890;2022-09-09T03:48:26;13.30;99.90
26224;DHT22;14820;48.682;8.890;2022-09-09T03:50:54;13.20;99.90
26224;DHT22;14820;48.682;8.890;2022-09-09T03:53:22;13.20;99.90
26224;DHT22;14820;48.682;8.890;2022-09-09T03:55:53;13.30;99.90
26224;DHT22;14820;48.682;8.890;2022-09-09T03:58:21;13.40;99.90
26224;DHT22;14820;48.682;8.890;2022-09-09T04:01:01;13.40;99.90
26224;DHT22;14820;48.682;8.890;2022-09-09T04:03:27;13.40;99.90
26224;DHT22;14820;48.682;8.890;2022-09-09T04:05:55;13.40;99.90
26224;DHT22;14820;48.682;8.890;2022-09-09T04:08:21;13.50;99.90
26224;DHT22;14820;48.682;8.890;2022-09-09T04:10:48;13.40;99.90
26224;DHT22;14820;48.682;8.890;2022-09-09T04:13:16;13.50;99.90
26224;DHT22;14820;48.682;8.890;2022-09-09T04:15:44;13.40;99.90
26224;DHT22;14820;48.682;8.890;2022-09-09T04:18:11;13.40;99.90
26224;DHT22;14820;48.682;8.890;2022-09-09T04:20:38;13.40;99.90
26224;DHT22;14820;48.682;8.890;2022-09-09T04:23:04;13.40;99.90
26224;DHT22;14820;48.682;8.890;2022-09-09T04:25:30;13.50;99.90
26224;DHT22;14820;48.682;8.890;2022-09-09T04:27:57;13.50;99.90
26224;DHT22;14820;48.682;8.890;2022-09-09T04:30:24;13.60;99.90
26224;DHT22;14820;48.682;8.890;2022-09-09T04:32:50;13.60;99.90
26224;DHT22;14820;48.682;8.890;2022-09-09T04:35:16;13.70;99.90
26224;DHT22;14820;48.682;8.890;2022-09-09T04:37:41;13.50;99.90
26224;DHT22;14820;48.682;8.890;2022-09-09T04:40:08;13.60;99.90
26224;DHT22;14820;48.682;8.890;2022-09-09T04:42:38;13.70;99.90
26224;DHT22;14820;48.682;8.890;2022-09-09T04:45:05;13.70;99.90
26224;DHT22;14820;48.682;8.890;2022-09-09T04:47:34;13.70;99.90
26224;DHT22;14820;48.682;8.890;2022-09-09T04:50:01;13.70;99.90
26224;DHT22;14820;48.682;8.890;2022-09-09T04:52:26;13.70;99.90
26224;DHT22;14820;48.682;8.890;2022-09-09T04:54:53;13.70;99.90
26224;DHT22;14820;48.682;8.890;2022-09-09T04:57:19;13.60;99.90
26224;DHT22;14820;48.682;8.890;2022-09-09T04:59:45;13.70;99.90
26224;DHT22;14820;48.682;8.890;2022-09-09T05:02:11;13.70;99.90
26224;DHT22;14820;48.682;8.890;2022-09-09T05:04:37;13.70;99.90
26224;DHT22;14820;48.682;8.890;2022-09-09T05:07:02;13.70;99.90
26224;DHT22;14820;48.682;8.890;2022-09-09T05:09:28;13.70;99.90
26224;DHT22;14820;48.682;8.890;2022-09-09T05:11:54;13.70;99.90
26224;DHT22;14820;48.682;8.890;2022-09-09T05:14:20;13.80;99.90
26224;DHT22;14820;48.682;8.890;2022-09-09T05:16:46;13.80;99.90
26224;DHT22;14820;48.682;8.890;2022-09-09T05:19:12;13.80;99.90
26224;DHT22;14820;48.682;8.890;2022-09-09T05:21:38;13.80;99.90
26224;DHT22;14820;48.682;8.890;2022-09-09T05:24:04;13.80;99.90
26224;DHT22;14820;48.682;8.890;2022-09-09T05:26:29;13.80;99.90
26224;DHT22;14820;48.682;8.890;2022-09-09T05:28:56;13.80;99.90
26224;DHT22;14820;48.682;8.890;2022-09-09T05:31:24;13.80;99.90
26224;DHT22;14820;48.682;8.890;2022-09-09T05:33:53;13.80;99.90
26224;DHT22;14820;48.682;8.890;2022-09-09T05:36:20;13.80;99.90
26224;DHT22;14820;48.682;8.890;2022-09-09T05:38:47;13.80;99.90
26224;DHT22;14820;48.682;8.890;2022-09-09T05:41:14;13.80;99.90
26224;DHT22;14820;48.682;8.890;2022-09-09T05:43:43;13.70;99.90
26224;DHT22;14820;48.682;8.890;2022-09-09T05:46:21;13.70;99.90
26224;DHT22;14820;48.682;8.890;2022-09-09T05:48:48;13.70;99.90
26224;DHT22;14820;48.682;8.890;2022-09-09T05:51:20;13.70;99.90
26224;DHT22;14820;48.682;8.890;2022-09-09T05:53:47;13.80;99.90
26224;DHT22;14820;48.682;8.890;2022-09-09T05:56:16;13.80;99.90
26224;DHT22;14820;48.682;8.890;2022-09-09T05:58:43;13.80;99.90
26224;DHT22;14820;48.682;8.890;2022-09-09T06:01:17;13.80;99.90
26224;DHT22;14820;48.682;8.890;2022-09-09T06:03:44;13.80;99.90
26224;DHT22;14820;48.682;8.890;2022-09-09T06:06:13;13.80;99.90
26224;DHT22;14820;48.682;8.890;2022-09-09T06:08:43;13.80;99.90
26224;DHT22;14820;48.682;8.890;2022-09-09T06:11:21;13.90;99.90
26224;DHT22;14820;48.682;8.890;2022-09-09T06:13:47;13.90;99.90
26224;DHT22;14820;48.682;8.890;2022-09-09T06:16:16;13.90;99.90
26224;DHT22;14820;48.682;8.890;2022-09-09T06:18:42;14.00;99.90
26224;DHT22;14820;48.682;8.890;2022-09-09T06:23:42;14.10;99.90
26224;DHT22;14820;48.682;8.890;2022-09-09T06:26:14;14.10;99.90
26224;DHT22;14820;48.682;8.890;2022-09-09T06:28:41;14.20;99.90
26224;DHT22;14820;48.682;8.890;2022-09-09T06:31:10;14.20;99.90
26224;DHT22;14820;48.682;8.890;2022-09-09T06:33:37;14.30;99.90
26224;DHT22;14820;48.682;8.890;2022-09-09T06:36:11;14.30;99.90
26224;DHT22;14820;48.682;8.890;2022-09-09T06:38:37;14.40;99.90
26224;DHT22;14820;48.682;8.890;2022-09-09T06:41:04;14.40;99.90
26224;DHT22;14820;48.682;8.890;2022-09-09T06:43:31;14.40;99.90
26224;DHT22;14820;48.682;8.890;2022-09-09T06:45:59;14.40;99.90
26224;DHT22;14820;48.682;8.890;2022-09-09T06:48:25;14.50;99.90
26224;DHT22;14820;48.682;8.890;2022-09-09T06:51:14;14.50;99.90
26224;DHT22;14820;48.682;8.890;2022-09-09T06:53:40;14.50;99.90
26224;DHT22;14820;48.682;8.890;2022-09-09T06:56:24;14.50;99.90
26224;DHT22;14820;48.682;8.890;2022-09-09T06:58:51;14.60;99.90
26224;DHT22;14820;48.682;8.890;2022-09-09T07:01:23;14.60;99.90
26224;DHT22;14820;48.682;8.890;2022-09-09T07:03:50;14.60;99.90
26224;DHT22;14820;48.682;8.890;2022-09-09T07:06:21;14.70;99.90
26224;DHT22;14820;48.682;8.890;2022-09-09T07:08:54;14.70;99.90
26224;DHT22;14820;48.682;8.890;2022-09-09T07:11:22;14.80;99.90
26224;DHT22;14820;48.682;8.890;2022-09-09T07:13:49;14.90;99.90
26224;DHT22;14820;48.682;8.890;2022-09-09T07:16:17;14.90;99.90
26224;DHT22;14820;48.682;8.890;2022-09-09T07:18:44;15.00;99.90
26224;DHT22;14820;48.682;8.890;2022-09-09T07:21:11;15.10;99.90
26224;DHT22;14820;48.682;8.890;2022-09-09T07:23:38;15.10;99.90
26224;DHT22;14820;48.682;8.890;2022-09-09T07:26:11;15.20;99.90
26224;DHT22;14820;48.682;8.890;2022-09-09T07:28:38;15.40;99.90
26224;DHT22;14820;48.682;8.890;2022-09-09T07:31:05;15.40;99.90
26224;DHT22;14820;48.682;8.890;2022-09-09T07:33:32;15.50;99.90
26224;DHT22;14820;48.682;8.890;2022-09-09T07:36:09;15.60;99.90
26224;DHT22;14820;48.682;8.890;2022-09-09T07:38:47;15.80;99.90
26224;DHT22;14820;48.682;8.890;2022-09-09T07:41:16;16.00;99.90
26224;DHT22;14820;48.682;8.890;2022-09-09T07:43:44;16.10;99.90
26224;DHT22;14820;48.682;8.890;2022-09-09T07:46:11;16.20;99.90
26224;DHT22;14820;48.682;8.890;2022-09-09T07:48:38;16.30;99.90
26224;DHT22;14820;48.682;8.890;2022-09-09T07:51:10;16.50;99.90
26224;DHT22;14820;48.682;8.890;2022-09-09T07:53:38;16.60;99.90
26224;DHT22;14820;48.682;8.890;2022-09-09T07:56:05;16.80;99.90
26224;DHT22;14820;48.682;8.890;2022-09-09T07:58:31;16.90;99.90
26224;DHT22;14820;48.682;8.890;2022-09-09T08:00:57;17.00;99.90
26224;DHT22;14820;48.682;8.890;2022-09-09T08:03:23;17.00;99.90
26224;DHT22;14820;48.682;8.890;2022-09-09T08:05:49;17.20;99.90
26224;DHT22;14820;48.682;8.890;2022-09-09T08:08:19;17.20;99.90
26224;DHT22;14820;48.682;8.890;2022-09-09T08:10:45;17.30;99.90
26224;DHT22;14820;48.682;8.890;2022-09-09T08:13:10;17.40;99.90
26224;DHT22;14820;48.682;8.890;2022-09-09T08:15:36;17.30;99.90
26224;DHT22;14820;48.682;8.890;2022-09-09T08:18:02;17.20;99.90
26224;DHT22;14820;48.682;8.890;2022-09-09T08:20:30;17.20;99.90
26224;DHT22;14820;48.682;8.890;2022-09-09T08:22:58;17.10;99.90
26224;DHT22;14820;48.682;8.890;2022-09-09T08:25:24;17.10;99.90
26224;DHT22;14820;48.682;8.890;2022-09-09T08:27:50;17.20;99.90
26224;DHT22;14820;48.682;8.890;2022-09-09T08:30:15;17.30;99.90
26224;DHT22;14820;48.682;8.890;2022-09-09T08:32:44;17.40;99.90
26224;DHT22;14820;48.682;8.890;2022-09-09T08:35:11;17.50;99.90
26224;DHT22;14820;48.682;8.890;2022-09-09T08:37:36;17.60;99.90
26224;DHT22;14820;48.682;8.890;2022-09-09T08:40:02;17.60;99.90
26224;DHT22;14820;48.682;8.890;2022-09-09T08:42:44;17.50;99.90
26224;DHT22;14820;48.682;8.890;2022-09-09T08:45:20;17.40;99.90
26224;DHT22;14820;48.682;8.890;2022-09-09T08:48:02;17.40;99.90
26224;DHT22;14820;48.682;8.890;2022-09-09T08:50:32;17.40;99.90
26224;DHT22;14820;48.682;8.890;2022-09-09T08:53:04;17.30;99.90
26224;DHT22;14820;48.682;8.890;2022-09-09T08:55:52;17.30;99.90
26224;DHT22;14820;48.682;8.890;2022-09-09T08:58:22;17.10;99.90
26224;DHT22;14820;48.682;8.890;2022-09-09T09:09:26;16.20;99.90
26224;DHT22;14820;48.682;8.890;2022-09-09T09:11:57;16.20;99.90
26224;DHT22;14820;48.682;8.890;2022-09-09T09:14:32;16.20;99.90
26224;DHT22;14820;48.682;8.890;2022-09-09T09:17:31;16.40;99.90
26224;DHT22;14820;48.682;8.890;2022-09-09T09:19:58;16.40;99.90
26224;DHT22;14820;48.682;8.890;2022-09-09T09:22:36;16.60;99.90
26224;DHT22;14820;48.682;8.890;2022-09-09T09:25:18;16.80;99.90
26224;DHT22;14820;48.682;8.890;2022-09-09T09:28:02;16.90;99.90
26224;DHT22;14820;48.682;8.890;2022-09-09T09:30:36;17.10;99.90
26224;DHT22;14820;48.682;8.890;2022-09-09T09:35:44;17.50;99.90
26224;DHT22;14820;48.682;8.890;2022-09-09T09:38:20;17.60;99.90
26224;DHT22;14820;48.682;8.890;2022-09-09T09:40:55;17.80;99.90
26224;DHT22;14820;48.682;8.890;2022-09-09T09:43:30;17.90;99.90
26224;DHT22;14820;48.682;8.890;2022-09-09T09:45:57;18.00;99.90
26224;DHT22;14820;48.682;8.890;2022-09-09T09:48:26;18.10;99.90
26224;DHT22;14820;48.682;8.890;2022-09-09T09:53:26;18.10;99.90
26224;DHT22;14820;48.682;8.890;2022-09-09T09:55:59;18.10;99.90
26224;DHT22;14820;48.682;8.890;2022-09-09T09:58:27;18.10;99.90
26224;DHT22;14820;48.682;8.890;2022-09-09T10:00:54;18.20;99.90
26224;DHT22;14820;48.682;8.890;2022-09-09T10:03:28;18.20;99.90
26224;DHT22;14820;48.682;8.890;2022-09-09T10:05:55;18.20;99.90
26224;DHT22;14820;48.682;8.890;2022-09-09T10:08:23;18.40;99.90
26224;DHT22;14820;48.682;8.890;2022-09-09T10:10:56;18.50;99.90
26224;DHT22;14820;48.682;8.890;2022-09-09T10:27:24;19.40;99.90
26224;DHT22;14820;48.682;8.890;2022-09-09T10:30:41;19.50;99.90
26224;DHT22;14820;48.682;8.890;2022-09-09T10:38:14;19.70;99.90
26224;DHT22;14820;48.682;8.890;2022-09-09T10:43:42;19.70;99.90
26224;DHT22;14820;48.682;8.890;2022-09-09T10:57:24;19.10;99.90
26224;DHT22;14820;48.682;8.890;2022-09-09T10:59:53;18.90;99.90
26224;DHT22;14820;48.682;8.890;2022-09-09T11:07:44;18.30;99.90
26224;DHT22;14820;48.682;8.890;2022-09-09T11:12:51;17.60;99.90
26224;DHT22;14820;48.682;8.890;2022-09-09T11:15:35;17.30;99.90
26224;DHT22;14820;48.682;8.890;2022-09-09T11:18:04;17.10;99.90
26224;DHT22;14820;48.682;8.890;2022-09-09T11:20:32;16.80;99.90
26224;DHT22;14820;48.682;8.890;2022-09-09T11:23:39;16.50;99.90
26224;DHT22;14820;48.682;8.890;2022-09-09T11:26:07;16.20;99.90
26224;DHT22;14820;48.682;8.890;2022-09-09T11:31:32;16.00;99.90
26224;DHT22;14820;48.682;8.890;2022-09-09T11:42:29;16.20;99.90
26224;DHT22;14820;48.682;8.890;2022-09-09T11:44:54;16.20;99.90
26224;DHT22;14820;48.682;8.890;2022-09-09T11:47:30;16.40;99.90
26224;DHT22;14820;48.682;8.890;2022-09-09T11:52:42;16.50;99.90
26224;DHT22;14820;48.682;8.890;2022-09-09T12:00:40;16.80;99.90
26224;DHT22;14820;48.682;8.890;2022-09-09T12:08:42;17.20;99.90
26224;DHT22;14820;48.682;8.890;2022-09-09T12:11:08;17.40;99.90
26224;DHT22;14820;48.682;8.890;2022-09-09T12:13:36;17.70;99.90
26224;DHT22;14820;48.682;8.890;2022-09-09T12:16:02;17.90;99.90
26224;DHT22;14820;48.682;8.890;2022-09-09T12:18:35;18.10;99.90
26224;DHT22;14820;48.682;8.890;2022-09-09T12:21:27;18.40;99.90
26224;DHT22;14820;48.682;8.890;2022-09-09T12:24:10;18.50;99.90
26224;DHT22;14820;48.682;8.890;2022-09-09T12:26:43;18.50;99.90
26224;DHT22;14820;48.682;8.890;2022-09-09T12:32:07;18.60;99.90
26224;DHT22;14820;48.682;8.890;2022-09-09T12:37:29;18.80;99.90
26224;DHT22;14820;48.682;8.890;2022-09-09T12:40:40;18.70;99.90
26224;DHT22;14820;48.682;8.890;2022-09-09T12:42:47;18.70;99.90
26224;DHT22;14820;48.682;8.890;2022-09-09T12:45:21;18.70;99.90
26224;DHT22;14820;48.682;8.890;2022-09-09T12:47:53;18.90;99.90
26224;DHT22;14820;48.682;8.890;2022-09-09T12:50:21;19.00;99.90
26224;DHT22;14820;48.682;8.890;2022-09-09T12:52:50;19.10;99.90
26224;DHT22;14820;48.682;8.890;2022-09-09T12:55:28;19.20;99.90
26224;DHT22;14820;48.682;8.890;2022-09-09T12:57:56;19.30;99.90
26224;DHT22;14820;48.682;8.890;2022-09-09T13:00:24;19.50;99.90
26224;DHT22;14820;48.682;8.890;2022-09-09T13:02:58;19.50;99.90
26224;DHT22;14820;48.682;8.890;2022-09-09T13:05:28;19.60;99.90
26224;DHT22;14820;48.682;8.890;2022-09-09T13:08:04;19.70;99.90
26224;DHT22;14820;48.682;8.890;2022-09-09T13:10:36;19.70;99.90
26224;DHT22;14820;48.682;8.890;2022-09-09T13:13:11;19.80;99.90
26224;DHT22;14820;48.682;8.890;2022-09-09T13:15:38;19.80;99.90
26224;DHT22;14820;48.682;8.890;2022-09-09T13:18:10;19.90;99.90
26224;DHT22;14820;48.682;8.890;2022-09-09T13:20:36;19.90;99.90
26224;DHT22;14820;48.682;8.890;2022-09-09T13:23:02;20.00;99.90
26224;DHT22;14820;48.682;8.890;2022-09-09T13:25:28;20.10;99.90
26224;DHT22;14820;48.682;8.890;2022-09-09T13:28:00;20.20;99.90
26224;DHT22;14820;48.682;8.890;2022-09-09T13:30:30;20.10;99.90
26224;DHT22;14820;48.682;8.890;2022-09-09T13:35:56;20.10;99.90
26224;DHT22;14820;48.682;8.890;2022-09-09T13:38:23;20.10;99.90
26224;DHT22;14820;48.682;8.890;2022-09-09T13:40:58;20.20;99.90
26224;DHT22;14820;48.682;8.890;2022-09-09T13:43:27;20.20;99.90
26224;DHT22;14820;48.682;8.890;2022-09-09T13:45:55;20.20;99.90
26224;DHT22;14820;48.682;8.890;2022-09-09T13:48:22;20.40;99.90
26224;DHT22;14820;48.682;8.890;2022-09-09T13:51:04;20.40;99.90
26224;DHT22;14820;48.682;8.890;2022-09-09T13:53:30;20.30;99.90
26224;DHT22;14820;48.682;8.890;2022-09-09T13:55:57;20.50;99.90
26224;DHT22;14820;48.682;8.890;2022-09-09T13:58:23;20.50;99.90
26224;DHT22;14820;48.682;8.890;2022-09-09T14:00:53;20.50;99.90
26224;DHT22;14820;48.682;8.890;2022-09-09T14:03:19;20.50;99.90
26224;DHT22;14820;48.682;8.890;2022-09-09T14:05:45;20.50;99.90
26224;DHT22;14820;48.682;8.890;2022-09-09T14:08:20;20.40;99.90
26224;DHT22;14820;48.682;8.890;2022-09-09T14:10:47;20.50;99.90
26224;DHT22;14820;48.682;8.890;2022-09-09T14:13:12;20.60;99.90
26224;DHT22;14820;48.682;8.890;2022-09-09T14:15:38;20.70;99.90
26224;DHT22;14820;48.682;8.890;2022-09-09T14:18:04;20.80;99.90
26224;DHT22;14820;48.682;8.890;2022-09-09T14:20:33;20.70;99.90
26224;DHT22;14820;48.682;8.890;2022-09-09T14:22:58;20.60;99.90
26224;DHT22;14820;48.682;8.890;2022-09-09T14:25:24;20.50;99.90
26224;DHT22;14820;48.682;8.890;2022-09-09T14:27:50;20.60;99.90
26224;DHT22;14820;48.682;8.890;2022-09-09T14:30:17;20.60;99.90
26224;DHT22;14820;48.682;8.890;2022-09-09T14:32:45;20.60;99.90
26224;DHT22;14820;48.682;8.890;2022-09-09T14:35:11;20.70;99.90
26224;DHT22;14820;48.682;8.890;2022-09-09T14:37:37;20.70;99.90
26224;DHT22;14820;48.682;8.890;2022-09-09T14:40:05;20.70;99.90
26224;DHT22;14820;48.682;8.890;2022-09-09T14:42:31;20.80;99.90
26224;DHT22;14820;48.682;8.890;2022-09-09T14:44:56;20.60;99.90
26224;DHT22;14820;48.682;8.890;2022-09-09T14:47:22;20.60;99.90
26224;DHT22;14820;48.682;8.890;2022-09-09T14:49:47;20.50;99.90
26224;DHT22;14820;48.682;8.890;2022-09-09T14:52:15;20.50;99.90
26224;DHT22;14820;48.682;8.890;2022-09-09T14:54:41;20.30;99.90
26224;DHT22;14820;48.682;8.890;2022-09-09T14:57:07;20.30;99.90
26224;DHT22;14820;48.682;8.890;2022-09-09T14:59:33;20.30;99.90
26224;DHT22;14820;48.682;8.890;2022-09-09T15:01:59;20.50;99.90
26224;DHT22;14820;48.682;8.890;2022-09-09T15:04:29;20.60;99.90
26224;DHT22;14820;48.682;8.890;2022-09-09T15:06:55;20.70;99.90
26224;DHT22;14820;48.682;8.890;2022-09-09T15:09:20;20.80;99.90
26224;DHT22;14820;48.682;8.890;2022-09-09T15:11:46;20.90;99.90
26224;DHT22;14820;48.682;8.890;2022-09-09T15:14:12;20.90;99.90
26224;DHT22;14820;48.682;8.890;2022-09-09T15:16:39;20.80;99.90
26224;DHT22;14820;48.682;8.890;2022-09-09T15:19:05;20.70;99.90
26224;DHT22;14820;48.682;8.890;2022-09-09T15:21:34;20.60;99.90
26224;DHT22;14820;48.682;8.890;2022-09-09T15:24:01;20.60;99.90
26224;DHT22;14820;48.682;8.890;2022-09-09T15:26:27;20.50;99.90
26224;DHT22;14820;48.682;8.890;2022-09-09T15:28:54;20.40;99.90
26224;DHT22;14820;48.682;8.890;2022-09-09T15:31:28;20.20;99.90
26224;DHT22;14820;48.682;8.890;2022-09-09T15:33:58;20.00;99.90
26224;DHT22;14820;48.682;8.890;2022-09-09T15:36:31;19.90;99.90
26224;DHT22;14820;48.682;8.890;2022-09-09T15:38:59;19.80;99.90
26224;DHT22;14820;48.682;8.890;2022-09-09T15:41:25;19.70;99.90
26224;DHT22;14820;48.682;8.890;2022-09-09T15:43:56;19.60;99.90
26224;DHT22;14820;48.682;8.890;2022-09-09T15:46:42;19.50;99.90
26224;DHT22;14820;48.682;8.890;2022-09-09T15:49:14;19.40;99.90
26224;DHT22;14820;48.682;8.890;2022-09-09T15:51:45;19.40;99.90
26224;DHT22;14820;48.682;8.890;2022-09-09T15:54:16;19.40;99.90
26224;DHT22;14820;48.682;8.890;2022-09-09T15:56:44;19.40;99.90
26224;DHT22;14820;48.682;8.890;2022-09-09T15:59:11;19.30;99.90
26224;DHT22;14820;48.682;8.890;2022-09-09T16:01:38;19.20;99.90
26224;DHT22;14820;48.682;8.890;2022-09-09T16:04:05;19.20;99.90
26224;DHT22;14820;48.682;8.890;2022-09-09T16:06:32;19.20;99.90
26224;DHT22;14820;48.682;8.890;2022-09-09T16:08:58;19.20;99.90
26224;DHT22;14820;48.682;8.890;2022-09-09T16:11:29;19.20;99.90
26224;DHT22;14820;48.682;8.890;2022-09-09T16:13:56;19.10;99.90
26224;DHT22;14820;48.682;8.890;2022-09-09T16:16:24;19.00;99.90
26224;DHT22;14820;48.682;8.890;2022-09-09T16:18:58;18.80;99.90
26224;DHT22;14820;48.682;8.890;2022-09-09T16:21:27;18.70;99.90
26224;DHT22;14820;48.682;8.890;2022-09-09T16:23:57;18.60;99.90
26224;DHT22;14820;48.682;8.890;2022-09-09T16:26:25;18.60;99.90
26224;DHT22;14820;48.682;8.890;2022-09-09T16:28:50;18.60;99.90
26224;DHT22;14820;48.682;8.890;2022-09-09T16:31:18;18.50;99.90
26224;DHT22;14820;48.682;8.890;2022-09-09T16:33:45;18.50;99.90
26224;DHT22;14820;48.682;8.890;2022-09-09T16:36:14;18.60;99.90
26224;DHT22;14820;48.682;8.890;2022-09-09T16:38:40;18.60;99.90
26224;DHT22;14820;48.682;8.890;2022-09-09T16:41:08;18.50;99.90
26224;DHT22;14820;48.682;8.890;2022-09-09T16:43:35;18.50;99.90
26224;DHT22;14820;48.682;8.890;2022-09-09T16:46:02;18.40;99.90
26224;DHT22;14820;48.682;8.890;2022-09-09T16:48:32;18.30;99.90
26224;DHT22;14820;48.682;8.890;2022-09-09T16:51:07;18.30;99.90
26224;DHT22;14820;48.682;8.890;2022-09-09T16:53:34;18.20;99.90
26224;DHT22;14820;48.682;8.890;2022-09-09T16:56:07;18.10;99.90
26224;DHT22;14820;48.682;8.890;2022-09-09T16:58:34;18.10;99.90
26224;DHT22;14820;48.682;8.890;2022-09-09T17:01:03;18.00;99.90
26224;DHT22;14820;48.682;8.890;2022-09-09T17:03:29;17.90;99.90
26224;DHT22;14820;48.682;8.890;2022-09-09T17:05:55;17.80;99.90
26224;DHT22;14820;48.682;8.890;2022-09-09T17:08:24;17.80;99.90
26224;DHT22;14820;48.682;8.890;2022-09-09T17:10:49;17.70;99.90
26224;DHT22;14820;48.682;8.890;2022-09-09T17:13:16;17.70;99.90
26224;DHT22;14820;48.682;8.890;2022-09-09T17:15:44;17.60;99.90
26224;DHT22;14820;48.682;8.890;2022-09-09T17:18:11;17.60;99.90
26224;DHT22;14820;48.682;8.890;2022-09-09T17:20:41;17.50;99.90
26224;DHT22;14820;48.682;8.890;2022-09-09T17:23:08;17.50;99.90
26224;DHT22;14820;48.682;8.890;2022-09-09T17:25:35;17.50;99.90
26224;DHT22;14820;48.682;8.890;2022-09-09T17:28:02;17.50;99.90
26224;DHT22;14820;48.682;8.890;2022-09-09T17:30:35;17.40;99.90
26224;DHT22;14820;48.682;8.890;2022-09-09T17:33:04;17.30;99.90
26224;DHT22;14820;48.682;8.890;2022-09-09T17:35:30;17.30;99.90
26224;DHT22;14820;48.682;8.890;2022-09-09T17:37:56;17.20;99.90
26224;DHT22;14820;48.682;8.890;2022-09-09T17:40:22;17.20;99.90
26224;DHT22;14820;48.682;8.890;2022-09-09T17:42:48;17.20;99.90
26224;DHT22;14820;48.682;8.890;2022-09-09T17:45:15;17.20;99.90
26224;DHT22;14820;48.682;8.890;2022-09-09T17:47:41;17.10;99.90
26224;DHT22;14820;48.682;8.890;2022-09-09T17:50:09;17.10;99.90
26224;DHT22;14820;48.682;8.890;2022-09-09T17:52:36;17.10;99.90
26224;DHT22;14820;48.682;8.890;2022-09-09T17:55:03;17.00;99.90
26224;DHT22;14820;48.682;8.890;2022-09-09T17:57:29;16.90;99.90
26224;DHT22;14820;48.682;8.890;2022-09-09T17:59:55;16.90;99.90
26224;DHT22;14820;48.682;8.890;2022-09-09T18:02:21;16.80;99.90
26224;DHT22;14820;48.682;8.890;2022-09-09T18:04:46;16.80;99.90